Time;durP1;ratioP1;P1;durP2;ratioP2;P2;SDS_P1;SDS_P2;PMS_P1;PMS_P2;Temp;Humidity;BMP_temperature;BMP_pressure;BME280_temperature;BME280_humidity;BME280_pressure;Samples;Min_cycle;Max_cycle;Signal;HPM_P1;HPM_P2
2022/07/25 00:00:34;;;;;;;3.50;0.93;;;23.00;99.90;;;;;;5059890;28;20048;-70
2022/07/25 00:03:00;;;;;;;1.73;0.93;;;23.10;99.90;;;;;;5060092;28;20070;-72
2022/07/25 00:05:26;;;;;;;2.17;1.08;;;23.00;99.90;;;;;;5057936;28;20036;-69
2022/07/25 00:07:51;;;;;;;2.85;1.38;;;23.00;99.90;;;;;;5046498;28;20130;-70
2022/07/25 00:10:17;;;;;;;2.60;1.55;;;23.00;99.90;;;;;;5061989;28;20121;-70
2022/07/25 00:12:43;;;;;;;2.40;1.40;;;23.00;99.90;;;;;;5043314;28;20127;-70
2022/07/25 00:15:10;;;;;;;1.50;1.40;;;23.00;99.90;;;;;;5063631;28;20044;-70
2022/07/25 00:17:35;;;;;;;3.08;1.65;;;23.00;99.90;;;;;;5039053;28;20179;-70
2022/07/25 00:20:02;;;;;;;3.03;1.58;;;23.00;99.90;;;;;;5053274;28;20111;-71
2022/07/25 00:22:28;;;;;;;2.08;1.90;;;23.00;99.90;;;;;;5062995;28;20044;-71
2022/07/25 00:24:54;;;;;;;4.07;1.98;;;23.00;99.90;;;;;;5059967;28;20055;-71
2022/07/25 00:27:19;;;;;;;3.20;2.58;;;23.00;99.90;;;;;;5039394;28;20645;-70
2022/07/25 00:29:45;;;;;;;2.83;2.42;;;23.00;99.90;;;;;;5021687;28;20048;-70
2022/07/25 00:32:11;;;;;;;3.80;2.15;;;23.00;99.90;;;;;;5056542;28;20101;-71
2022/07/25 00:34:37;;;;;;;3.47;2.40;;;23.00;99.90;;;;;;5058249;28;20037;-72
2022/07/25 00:37:03;;;;;;;4.53;2.28;;;23.00;99.90;;;;;;5059354;28;20389;-70
2022/07/25 00:39:29;;;;;;;2.75;2.20;;;23.00;99.90;;;;;;5058205;28;20430;-71
2022/07/25 00:41:54;;;;;;;5.82;2.38;;;23.00;99.90;;;;;;5040555;28;20048;-70
2022/07/25 00:44:26;;;;;;;2.53;2.33;;;23.00;99.90;;;;;;5058915;28;20075;-71
2022/07/25 00:46:53;;;;;;;4.50;2.60;;;23.00;99.90;;;;;;5041545;28;20880;-70
2022/07/25 00:49:18;;;;;;;3.15;2.85;;;22.90;99.90;;;;;;5060784;28;20956;-70
2022/07/25 00:51:45;;;;;;;3.85;2.97;;;22.90;99.90;;;;;;5059933;28;20051;-70
2022/07/25 00:54:11;;;;;;;3.42;3.13;;;22.90;99.90;;;;;;5063468;28;20043;-70
2022/07/25 00:56:37;;;;;;;4.55;3.03;;;22.80;99.90;;;;;;5028417;28;20039;-70
2022/07/25 00:59:03;;;;;;;4.22;3.50;;;22.80;99.90;;;;;;5059293;28;20479;-71
2022/07/25 01:01:29;;;;;;;4.95;3.53;;;22.80;99.90;;;;;;5035963;28;20032;-70
2022/07/25 01:03:55;;;;;;;4.45;3.88;;;22.70;99.90;;;;;;5038239;28;20053;-69
2022/07/25 01:06:21;;;;;;;5.25;3.92;;;22.70;99.90;;;;;;5024826;28;21215;-69
2022/07/25 01:08:48;;;;;;;5.95;4.18;;;22.60;99.90;;;;;;5044231;28;20603;-69
2022/07/25 01:11:13;;;;;;;5.15;4.63;;;22.60;99.90;;;;;;5062451;28;20045;-69
2022/07/25 01:13:39;;;;;;;5.07;4.40;;;22.50;99.90;;;;;;5046447;28;20043;-69
2022/07/25 01:16:05;;;;;;;8.10;4.88;;;22.50;99.90;;;;;;5060002;28;20251;-68
2022/07/25 01:18:33;;;;;;;5.53;4.90;;;22.40;99.90;;;;;;5059082;28;20080;-70
2022/07/25 01:21:00;;;;;;;8.38;5.00;;;22.40;99.90;;;;;;5058387;28;20045;-71
2022/07/25 01:23:26;;;;;;;6.32;5.22;;;22.30;99.90;;;;;;5055424;28;20045;-71
2022/07/25 01:25:52;;;;;;;5.47;4.65;;;22.30;99.90;;;;;;5037312;28;20121;-73
2022/07/25 01:28:18;;;;;;;7.57;5.68;;;22.30;99.90;;;;;;5044598;28;20037;-70
2022/07/25 01:30:44;;;;;;;5.85;5.28;;;22.20;99.90;;;;;;5061476;28;20043;-72
2022/07/25 01:33:14;;;;;;;5.88;5.30;;;22.20;99.90;;;;;;5058930;28;20040;-70
2022/07/25 01:35:40;;;;;;;7.93;5.90;;;22.20;99.90;;;;;;5040471;28;20083;-74
2022/07/25 01:38:06;;;;;;;6.35;5.72;;;22.20;99.90;;;;;;5038107;28;20567;-69
2022/07/25 01:40:31;;;;;;;5.68;5.10;;;22.20;99.90;;;;;;5053600;28;20113;-73
2022/07/25 01:42:57;;;;;;;6.03;5.43;;;22.10;99.90;;;;;;5039024;28;20773;-70
2022/07/25 01:45:23;;;;;;;6.53;5.70;;;22.10;99.90;;;;;;5040058;28;20440;-70
2022/07/25 01:47:48;;;;;;;7.03;6.22;;;22.10;99.90;;;;;;5055282;28;20051;-70
2022/07/25 01:50:14;;;;;;;6.45;5.78;;;22.10;99.90;;;;;;5021702;28;20512;-72
2022/07/25 01:52:40;;;;;;;8.85;6.05;;;22.10;99.90;;;;;;5037916;28;20044;-70
2022/07/25 01:55:06;;;;;;;7.00;6.00;;;22.10;99.90;;;;;;5039365;28;20074;-69
2022/07/25 01:57:32;;;;;;;6.65;6.00;;;22.10;99.90;;;;;;5046219;28;20035;-71
2022/07/25 01:59:58;;;;;;;7.10;6.40;;;22.10;99.90;;;;;;5040357;28;20044;-71
2022/07/25 02:02:24;;;;;;;7.35;6.65;;;22.10;99.90;;;;;;5056758;28;20040;-71
2022/07/25 02:04:50;;;;;;;8.20;6.07;;;22.10;99.90;;;;;;5058588;28;20044;-69
2022/07/25 02:07:15;;;;;;;6.93;6.18;;;22.10;99.90;;;;;;5060262;28;20127;-70
2022/07/25 02:09:41;;;;;;;8.82;6.32;;;22.10;99.90;;;;;;5039802;28;20541;-69
2022/07/25 02:12:07;;;;;;;6.97;6.38;;;22.10;99.90;;;;;;5042252;28;20052;-70
2022/07/25 02:14:33;;;;;;;7.05;6.35;;;22.10;99.90;;;;;;5059907;28;20578;-71
2022/07/25 02:16:58;;;;;;;7.35;6.40;;;22.10;99.90;;;;;;5059809;28;20050;-70
2022/07/25 02:19:24;;;;;;;8.00;6.90;;;22.00;99.90;;;;;;5056867;28;20526;-69
2022/07/25 02:21:50;;;;;;;8.23;6.90;;;22.00;99.90;;;;;;5061550;28;20300;-72
2022/07/25 02:24:16;;;;;;;7.65;6.07;;;22.00;99.90;;;;;;5059467;28;20048;-72
2022/07/25 02:26:42;;;;;;;8.45;6.97;;;21.90;99.90;;;;;;5061718;28;20047;-71
2022/07/25 02:29:07;;;;;;;7.20;6.50;;;21.90;99.90;;;;;;5038493;28;20109;-69
2022/07/25 02:31:33;;;;;;;7.60;6.88;;;21.90;99.90;;;;;;5022256;28;20439;-71
2022/07/25 02:33:59;;;;;;;8.13;6.72;;;21.90;99.90;;;;;;5061373;28;20067;-69
2022/07/25 02:36:25;;;;;;;7.75;7.03;;;21.90;99.90;;;;;;5036648;28;20087;-70
2022/07/25 02:38:50;;;;;;;7.15;6.45;;;21.90;99.90;;;;;;5060323;28;20047;-72
2022/07/25 02:41:16;;;;;;;7.20;6.47;;;21.90;99.90;;;;;;5056162;28;20838;-70
2022/07/25 02:43:42;;;;;;;7.45;6.75;;;21.80;99.90;;;;;;5061408;28;20123;-72
2022/07/25 02:46:07;;;;;;;6.97;6.38;;;21.80;99.90;;;;;;5056349;28;20068;-70
2022/07/25 02:48:33;;;;;;;8.20;7.40;;;21.80;99.90;;;;;;5058097;28;20073;-73
2022/07/25 02:50:59;;;;;;;9.02;7.03;;;21.70;99.90;;;;;;5059163;28;20060;-70
2022/07/25 02:53:24;;;;;;;7.28;6.57;;;21.70;99.90;;;;;;5038410;28;20048;-72
2022/07/25 02:55:50;;;;;;;8.90;8.10;;;21.80;99.90;;;;;;5059663;28;20057;-69
2022/07/25 02:58:15;;;;;;;10.77;9.15;;;21.70;99.90;;;;;;5065213;28;20477;-70
2022/07/25 03:00:41;;;;;;;11.00;9.68;;;21.50;99.90;;;;;;5061537;28;20531;-71
2022/07/25 03:03:07;;;;;;;12.55;9.50;;;21.30;99.90;;;;;;5054971;28;20044;-70
2022/07/25 03:05:33;;;;;;;12.50;10.48;;;21.00;99.90;;;;;;5059594;28;20181;-69
2022/07/25 03:07:59;;;;;;;11.10;9.32;;;20.90;99.90;;;;;;5038103;28;20730;-70
2022/07/25 03:10:24;;;;;;;10.48;9.48;;;20.80;99.90;;;;;;5034639;28;20436;-70
2022/07/25 03:12:50;;;;;;;11.52;9.70;;;20.70;99.90;;;;;;5016474;28;20055;-69
2022/07/25 03:15:16;;;;;;;11.05;9.95;;;20.70;99.90;;;;;;5037559;28;20040;-72
2022/07/25 03:17:41;;;;;;;14.30;10.20;;;20.60;99.90;;;;;;5043131;28;20048;-72
2022/07/25 03:20:09;;;;;;;11.82;10.65;;;20.60;99.90;;;;;;5035620;28;20044;-70
2022/07/25 03:22:35;;;;;;;11.35;9.90;;;20.60;99.90;;;;;;5037065;28;20044;-70
2022/07/25 03:25:00;;;;;;;10.82;9.70;;;20.70;99.90;;;;;;5038111;28;20690;-71
2022/07/25 03:27:27;;;;;;;11.25;9.73;;;20.70;99.90;;;;;;5035159;28;20077;-72
2022/07/25 03:29:53;;;;;;;11.80;10.60;;;20.70;99.90;;;;;;5039757;28;20210;-69
2022/07/25 03:32:19;;;;;;;11.88;10.77;;;20.60;99.90;;;;;;5017427;28;20098;-70
2022/07/25 03:34:45;;;;;;;13.07;10.13;;;20.60;99.90;;;;;;5038583;28;20032;-70
2022/07/25 03:37:10;;;;;;;14.07;9.52;;;20.60;99.90;;;;;;5037945;28;20048;-70
2022/07/25 03:39:36;;;;;;;11.85;10.13;;;20.50;99.90;;;;;;5038435;28;20037;-69
2022/07/25 03:42:02;;;;;;;10.00;9.13;;;20.50;99.90;;;;;;5036648;28;20041;-70
2022/07/25 03:44:28;;;;;;;11.40;9.05;;;20.50;99.90;;;;;;5038051;28;20114;-69
2022/07/25 03:46:53;;;;;;;10.20;9.10;;;20.50;99.90;;;;;;5036971;28;20045;-71
2022/07/25 03:49:19;;;;;;;11.98;9.60;;;20.50;99.90;;;;;;5037468;28;20067;-70
2022/07/25 03:51:45;;;;;;;14.30;9.75;;;20.50;99.90;;;;;;5034654;28;20365;-72
2022/07/25 03:54:14;;;;;;;10.82;9.60;;;20.50;99.90;;;;;;5033723;28;20036;-72
2022/07/25 03:56:50;;;;;;;10.40;9.23;;;20.50;99.90;;;;;;5032371;28;20123;-71
2022/07/25 03:59:18;;;;;;;10.40;9.38;;;20.50;99.90;;;;;;5040086;28;20124;-72
2022/07/25 04:01:46;;;;;;;11.98;9.65;;;20.50;99.90;;;;;;5041785;28;20127;-70
2022/07/25 04:04:12;;;;;;;11.52;9.43;;;20.50;99.90;;;;;;5036553;28;20107;-70
2022/07/25 04:06:38;;;;;;;11.15;9.63;;;20.50;99.90;;;;;;5037386;28;20052;-67
2022/07/25 04:09:04;;;;;;;14.20;9.80;;;20.50;99.90;;;;;;5041530;28;20110;-69
2022/07/25 04:11:30;;;;;;;14.43;10.10;;;20.50;99.90;;;;;;5040161;28;20075;-71
2022/07/25 04:13:57;;;;;;;11.23;9.45;;;20.50;99.90;;;;;;5061281;28;20068;-69
2022/07/25 04:16:24;;;;;;;11.40;9.05;;;20.50;99.90;;;;;;5059758;28;20050;-69
2022/07/25 04:18:50;;;;;;;10.50;9.48;;;20.50;99.90;;;;;;5062378;28;20043;-70
2022/07/25 04:21:16;;;;;;;9.63;8.50;;;20.50;99.90;;;;;;5059156;28;20052;-73
2022/07/25 04:23:42;;;;;;;13.73;9.50;;;20.40;99.90;;;;;;5052097;28;20120;-72
2022/07/25 04:26:08;;;;;;;11.85;8.98;;;20.40;99.90;;;;;;5056071;28;20114;-70
2022/07/25 04:28:33;;;;;;;10.32;8.43;;;20.40;99.90;;;;;;5058241;28;20044;-72
2022/07/25 04:30:59;;;;;;;11.10;8.32;;;20.40;99.90;;;;;;5057070;28;20051;-69
2022/07/25 04:33:26;;;;;;;12.30;8.85;;;20.40;99.90;;;;;;5056907;28;20829;-69
2022/07/25 04:35:51;;;;;;;11.48;9.73;;;20.40;99.90;;;;;;5054961;28;20051;-72
2022/07/25 04:38:17;;;;;;;13.07;9.52;;;20.40;99.90;;;;;;5055354;28;20056;-69
2022/07/25 04:40:43;;;;;;;12.23;9.95;;;20.50;99.90;;;;;;5058955;28;20504;-70
2022/07/25 04:43:09;;;;;;;10.70;9.35;;;20.50;99.90;;;;;;5054999;28;20526;-69
2022/07/25 04:45:35;;;;;;;12.50;10.20;;;20.50;99.90;;;;;;5024308;28;20093;-73
2022/07/25 04:48:01;;;;;;;12.90;10.20;;;20.60;99.90;;;;;;5024244;28;20446;-69
2022/07/25 04:50:28;;;;;;;13.80;11.18;;;20.70;99.90;;;;;;5063514;28;20097;-70
2022/07/25 04:52:53;;;;;;;11.38;10.05;;;20.70;99.90;;;;;;5060099;28;20101;-73
2022/07/25 04:55:19;;;;;;;13.85;10.60;;;20.80;99.90;;;;;;5066307;28;20043;-70
2022/07/25 04:57:46;;;;;;;11.25;10.15;;;20.90;99.90;;;;;;5042163;28;20032;-70
2022/07/25 05:00:13;;;;;;;12.43;11.13;;;21.00;99.90;;;;;;5037058;28;20049;-71
2022/07/25 05:02:39;;;;;;;14.25;11.30;;;21.10;99.90;;;;;;5045208;28;20051;-70
2022/07/25 05:05:05;;;;;;;11.68;10.60;;;21.20;99.90;;;;;;5066527;28;20048;-71
2022/07/25 05:07:31;;;;;;;12.63;11.40;;;21.30;99.90;;;;;;5055349;28;20072;-70
2022/07/25 05:09:57;;;;;;;14.30;11.25;;;21.30;99.90;;;;;;5058988;28;20261;-72
2022/07/25 05:12:22;;;;;;;15.70;11.55;;;21.40;99.90;;;;;;5060220;28;20112;-71
2022/07/25 05:14:48;;;;;;;15.40;11.07;;;21.50;99.90;;;;;;5070517;28;20047;-70
2022/07/25 05:17:14;;;;;;;15.07;10.82;;;21.50;99.90;;;;;;5062562;28;20048;-71
2022/07/25 05:19:40;;;;;;;16.67;11.85;;;21.50;99.90;;;;;;5057551;28;20419;-69
2022/07/25 05:22:05;;;;;;;15.20;11.30;;;21.50;99.90;;;;;;5039311;28;20139;-72
2022/07/25 05:24:35;;;;;;;17.27;10.88;;;21.60;99.90;;;;;;5058058;28;20051;-71
2022/07/25 05:27:01;;;;;;;12.60;10.77;;;21.70;99.90;;;;;;5061554;28;20029;-69
2022/07/25 05:29:27;;;;;;;14.88;11.48;;;21.70;99.90;;;;;;5054378;28;21108;-70
2022/07/25 05:31:53;;;;;;;13.07;11.30;;;21.70;99.90;;;;;;5054757;28;20331;-71
2022/07/25 05:34:19;;;;;;;17.40;10.95;;;21.80;99.90;;;;;;5051331;28;20341;-71
2022/07/25 05:36:45;;;;;;;12.55;11.25;;;21.90;99.90;;;;;;5059479;28;20439;-69
2022/07/25 05:39:11;;;;;;;17.02;11.38;;;22.00;99.90;;;;;;5034152;28;20087;-69
2022/07/25 05:41:37;;;;;;;13.32;11.00;;;22.30;99.90;;;;;;5062203;28;20044;-70
2022/07/25 05:44:03;;;;;;;16.67;10.18;;;22.40;99.90;;;;;;5055462;28;20549;-71
2022/07/25 05:46:31;;;;;;;12.93;10.85;;;22.50;99.90;;;;;;5057577;28;20109;-69
2022/07/25 05:48:57;;;;;;;10.80;9.77;;;22.50;99.90;;;;;;5032996;28;20051;-71
2022/07/25 05:51:23;;;;;;;14.80;10.68;;;22.60;99.90;;;;;;5057798;28;20591;-70
2022/07/25 05:53:48;;;;;;;14.82;11.13;;;22.60;99.90;;;;;;5063048;28;20675;-69
2022/07/25 05:56:14;;;;;;;17.90;10.88;;;22.50;99.90;;;;;;5056944;28;20523;-71
2022/07/25 05:58:41;;;;;;;11.70;10.23;;;22.50;99.90;;;;;;5036432;28;20166;-71
2022/07/25 06:01:10;;;;;;;11.85;10.65;;;22.60;99.90;;;;;;5055707;28;20109;-70
2022/07/25 06:03:35;;;;;;;11.43;10.05;;;22.70;99.90;;;;;;5057879;28;20047;-68
2022/07/25 06:06:01;;;;;;;11.23;9.60;;;22.70;99.90;;;;;;5039380;28;20048;-70
2022/07/25 06:08:29;;;;;;;10.80;9.77;;;22.80;99.90;;;;;;5052512;28;20062;-72
2022/07/25 06:10:56;;;;;;;11.05;9.55;;;22.90;99.90;;;;;;5054041;28;20037;-71
2022/07/25 06:13:22;;;;;;;11.75;9.77;;;23.00;99.90;;;;;;5055584;28;20119;-69
2022/07/25 06:15:47;;;;;;;10.57;9.45;;;23.10;99.90;;;;;;5059609;28;20108;-70
2022/07/25 06:18:13;;;;;;;11.38;9.50;;;23.10;99.90;;;;;;5054885;28;20079;-69
2022/07/25 06:20:38;;;;;;;10.98;9.90;;;23.10;99.90;;;;;;5039123;28;20044;-72
2022/07/25 06:23:04;;;;;;;11.13;9.02;;;23.20;99.90;;;;;;5043341;28;20050;-69
2022/07/25 06:25:30;;;;;;;10.68;9.50;;;23.20;99.90;;;;;;5038911;28;20036;-69
2022/07/25 06:27:56;;;;;;;10.32;9.07;;;23.30;99.90;;;;;;5055705;28;20051;-69
2022/07/25 06:30:21;;;;;;;10.50;9.50;;;23.40;99.90;;;;;;5035935;28;20048;-69
2022/07/25 06:32:48;;;;;;;12.73;10.02;;;23.40;99.90;;;;;;5052691;28;20044;-71
2022/07/25 06:35:14;;;;;;;10.27;9.25;;;23.50;99.90;;;;;;5032346;28;20087;-69
2022/07/25 06:37:40;;;;;;;10.40;9.40;;;23.50;99.90;;;;;;5067838;28;20157;-69
2022/07/25 06:40:07;;;;;;;11.13;9.95;;;23.40;99.90;;;;;;5060132;28;20559;-72
2022/07/25 06:42:36;;;;;;;10.63;9.15;;;23.50;99.90;;;;;;5054853;28;21207;-70
2022/07/25 06:45:06;;;;;;;10.23;8.70;;;23.70;99.90;;;;;;5050677;28;20055;-69
2022/07/25 06:47:32;;;;;;;9.18;8.27;;;23.80;99.90;;;;;;5051282;28;20698;-69
2022/07/25 06:49:58;;;;;;;10.25;8.48;;;23.80;99.90;;;;;;5054091;28;20052;-69
2022/07/25 06:52:23;;;;;;;9.23;8.10;;;23.70;99.90;;;;;;5035321;28;20567;-70
2022/07/25 06:54:49;;;;;;;9.05;8.15;;;23.60;99.90;;;;;;5055789;28;20168;-70
2022/07/25 06:57:15;;;;;;;8.38;7.32;;;23.60;99.90;;;;;;5050676;28;20073;-69
2022/07/25 06:59:40;;;;;;;10.05;7.57;;;23.70;99.90;;;;;;5053646;28;20500;-71
2022/07/25 07:02:06;;;;;;;8.90;7.78;;;24.00;99.90;;;;;;5056010;28;20036;-69
2022/07/25 07:04:32;;;;;;;7.90;7.00;;;24.30;99.90;;;;;;5055716;28;20050;-69
2022/07/25 07:06:57;;;;;;;9.20;8.20;;;24.70;99.90;;;;;;5054357;28;20044;-71
2022/07/25 07:09:23;;;;;;;8.88;7.35;;;24.90;99.90;;;;;;5054689;28;20110;-69
2022/07/25 07:11:49;;;;;;;7.40;6.70;;;25.20;99.90;;;;;;5052531;28;20766;-70
2022/07/25 07:14:14;;;;;;;8.50;6.95;;;25.60;99.90;;;;;;5035846;28;20059;-69
2022/07/25 07:16:41;;;;;;;8.05;7.20;;;25.80;99.90;;;;;;5056928;28;20742;-70
2022/07/25 07:19:09;;;;;;;8.13;6.55;;;26.20;99.90;;;;;;5050664;28;20094;-73
2022/07/25 07:21:35;;;;;;;7.30;6.60;;;26.20;99.90;;;;;;5037165;28;20047;-71
2022/07/25 07:24:01;;;;;;;9.05;6.80;;;26.20;99.90;;;;;;5048193;28;20053;-71
2022/07/25 07:26:27;;;;;;;7.47;6.63;;;25.90;99.90;;;;;;5053851;28;20047;-70
2022/07/25 07:28:54;;;;;;;8.63;6.47;;;25.80;99.90;;;;;;5053848;28;20048;-68
2022/07/25 07:31:20;;;;;;;11.07;6.90;;;25.90;99.90;;;;;;5036482;28;20052;-70
2022/07/25 07:33:46;;;;;;;7.53;6.45;;;25.90;99.90;;;;;;5050163;28;20679;-70
2022/07/25 07:36:12;;;;;;;7.38;6.70;;;25.80;99.90;;;;;;5052473;28;20546;-71
2022/07/25 07:38:38;;;;;;;6.65;6.05;;;25.80;99.90;;;;;;5045781;28;20710;-71
2022/07/25 07:41:04;;;;;;;9.00;7.15;;;25.70;99.90;;;;;;5049910;28;20116;-72
2022/07/25 07:43:30;;;;;;;9.52;7.43;;;25.70;99.90;;;;;;5053952;28;20524;-70
2022/07/25 07:46:00;;;;;;;8.18;7.47;;;25.90;99.90;;;;;;5035572;28;20052;-70
2022/07/25 07:48:26;;;;;;;7.90;7.13;;;25.80;99.90;;;;;;5048654;28;20335;-69
2022/07/25 07:50:52;;;;;;;9.15;7.53;;;25.60;99.90;;;;;;5034333;28;20950;-70
2022/07/25 07:53:17;;;;;;;9.48;8.23;;;25.60;99.90;;;;;;5048625;28;20138;-70
2022/07/25 07:55:54;;;;;;;8.43;7.53;;;25.60;99.90;;;;;;5054438;28;20055;-70
2022/07/25 07:58:20;;;;;;;9.05;7.70;;;25.60;99.90;;;;;;5030258;28;20052;-70
2022/07/25 08:00:50;;;;;;;8.77;7.78;;;25.60;99.90;;;;;;5051695;28;20041;-70
2022/07/25 08:03:18;;;;;;;8.60;7.70;;;25.60;99.90;;;;;;5054222;28;20079;-71
2022/07/25 08:05:45;;;;;;;9.13;7.45;;;25.50;99.90;;;;;;5057442;28;20028;-72
2022/07/25 08:08:13;;;;;;;9.82;7.55;;;25.70;99.90;;;;;;5049619;28;20045;-73
2022/07/25 08:10:42;;;;;;;8.52;7.20;;;25.90;99.90;;;;;;5041659;28;20597;-72
2022/07/25 08:13:15;;;;;;;9.45;6.45;;;26.30;99.90;;;;;;5057477;28;20063;-70
2022/07/25 08:15:42;;;;;;;7.72;6.85;;;26.70;99.90;;;;;;5048630;28;20043;-71
2022/07/25 08:18:08;;;;;;;7.00;6.40;;;26.70;99.90;;;;;;5059881;28;20737;-70
2022/07/25 08:20:34;;;;;;;6.35;4.80;;;26.50;99.90;;;;;;5056766;28;20036;-69
2022/07/25 08:23:00;;;;;;;5.38;4.20;;;26.50;99.90;;;;;;5063878;28;20040;-71
2022/07/25 08:25:26;;;;;;;5.40;3.75;;;26.30;99.90;;;;;;5044802;28;20079;-74
2022/07/25 08:27:52;;;;;;;4.50;3.60;;;26.20;99.90;;;;;;5049728;28;20052;-73
2022/07/25 08:30:18;;;;;;;4.93;3.75;;;26.10;99.90;;;;;;5064106;28;20040;-71
2022/07/25 08:32:49;;;;;;;6.00;3.47;;;26.00;99.90;;;;;;5067975;28;20040;-69
2022/07/25 08:35:15;;;;;;;5.97;3.70;;;25.90;99.90;;;;;;5059957;28;20036;-73
2022/07/25 08:37:40;;;;;;;6.15;3.50;;;25.80;99.90;;;;;;5047995;28;20048;-70
2022/07/25 08:40:07;;;;;;;5.90;3.53;;;25.80;99.90;;;;;;5060760;28;20334;-72
2022/07/25 08:42:33;;;;;;;6.72;3.55;;;25.60;99.90;;;;;;5064007;28;20064;-69
2022/07/25 08:45:02;;;;;;;5.78;3.70;;;25.60;99.90;;;;;;5059446;28;20128;-71
2022/07/25 08:47:29;;;;;;;6.90;4.22;;;25.50;99.90;;;;;;5065499;28;20128;-70
2022/07/25 08:49:55;;;;;;;6.75;4.30;;;25.60;99.90;;;;;;5058872;28;20052;-70
2022/07/25 08:52:22;;;;;;;4.63;3.85;;;25.70;99.90;;;;;;5055805;28;20048;-69
2022/07/25 08:54:49;;;;;;;4.00;3.50;;;25.90;99.90;;;;;;5060109;28;20048;-71
2022/07/25 08:57:15;;;;;;;5.32;3.38;;;25.80;99.90;;;;;;5042593;28;20047;-70
2022/07/25 08:59:42;;;;;;;3.90;3.45;;;25.70;99.90;;;;;;5053376;28;20056;-70
2022/07/25 09:02:11;;;;;;;6.25;3.42;;;25.70;99.90;;;;;;5052429;28;20074;-71
2022/07/25 09:04:37;;;;;;;5.40;2.88;;;25.30;99.90;;;;;;5053396;28;20079;-69
2022/07/25 09:07:03;;;;;;;6.13;2.75;;;25.10;99.90;;;;;;5054930;28;20652;-70
2022/07/25 09:09:31;;;;;;;6.10;3.00;;;24.90;99.90;;;;;;5038132;28;20244;-69
2022/07/25 09:11:57;;;;;;;4.93;2.90;;;24.70;99.90;;;;;;5060478;28;20048;-70
2022/07/25 09:14:23;;;;;;;2.90;2.60;;;24.50;99.90;;;;;;5065108;28;20048;-70
2022/07/25 09:16:49;;;;;;;3.60;2.97;;;24.40;99.90;;;;;;5067434;28;20047;-71
2022/07/25 09:19:17;;;;;;;5.68;3.50;;;24.40;99.90;;;;;;5043355;28;20052;-71
2022/07/25 09:21:56;;;;;;;4.43;3.50;;;24.50;99.90;;;;;;5068833;28;20048;-73
2022/07/25 09:24:22;;;;;;;6.68;3.33;;;24.50;99.90;;;;;;5045548;28;20129;-69
2022/07/25 09:26:57;;;;;;;5.50;3.38;;;24.40;99.90;;;;;;5035365;28;20967;-72
2022/07/25 09:29:25;;;;;;;4.55;3.72;;;24.40;99.90;;;;;;5053241;28;20495;-71
2022/07/25 09:31:52;;;;;;;5.22;3.50;;;24.30;99.90;;;;;;5047896;28;20059;-70
2022/07/25 09:34:39;;;;;;;8.88;3.80;;;24.40;99.90;;;;;;5058230;28;20101;-69
2022/07/25 09:37:13;;;;;;;6.47;4.80;;;24.40;99.90;;;;;;5048861;28;20663;-69
2022/07/25 09:39:48;;;;;;;6.18;5.13;;;24.40;99.90;;;;;;5019265;28;20043;-72
2022/07/25 09:42:36;;;;;;;6.80;5.43;;;24.50;99.90;;;;;;5045648;28;20051;-68
2022/07/25 09:45:12;;;;;;;3.35;2.58;;;24.70;99.90;;;;;;5066207;28;20048;-70
2022/07/25 09:47:51;;;;;;;5.13;2.63;;;25.10;99.90;;;;;;5060283;28;20044;-70
2022/07/25 09:50:18;;;;;;;6.18;2.80;;;25.40;99.90;;;;;;5066792;28;20062;-72
2022/07/25 09:52:45;;;;;;;3.65;2.75;;;25.50;99.90;;;;;;5055060;28;20083;-69
2022/07/25 09:55:13;;;;;;;4.10;2.20;;;25.50;99.90;;;;;;5059545;28;20045;-70
2022/07/25 09:57:39;;;;;;;4.53;2.58;;;25.60;99.90;;;;;;5058259;28;20518;-70
2022/07/25 10:00:07;;;;;;;2.72;1.73;;;25.70;99.90;;;;;;5035604;28;20178;-68
2022/07/25 10:03:07;;;;;;;3.47;1.95;;;25.80;99.90;;;;;;5024324;28;20048;-68
2022/07/25 10:06:08;;;;;;;2.67;2.00;;;26.20;99.90;;;;;;5054366;28;20036;-71
2022/07/25 10:08:38;;;;;;;2.80;1.88;;;26.70;99.90;;;;;;5005256;28;20051;-70
2022/07/25 10:11:16;;;;;;;3.13;2.38;;;26.80;99.90;;;;;;5018090;28;20061;-71
2022/07/25 10:13:42;;;;;;;3.17;2.58;;;27.10;99.90;;;;;;5037114;28;20032;-71
2022/07/25 10:16:27;;;;;;;4.18;2.40;;;27.30;99.90;;;;;;5062551;28;20036;-71
2022/07/25 10:18:57;;;;;;;3.83;2.08;;;27.50;99.90;;;;;;5036821;28;20046;-70
2022/07/25 10:21:25;;;;;;;4.25;2.40;;;27.50;99.90;;;;;;5053643;28;20046;-70
2022/07/25 10:24:05;;;;;;;5.03;1.77;;;27.80;99.90;;;;;;5052621;28;20315;-71
2022/07/25 10:26:32;;;;;;;4.03;0.98;;;27.70;99.90;;;;;;5056206;28;20050;-69
2022/07/25 10:29:00;;;;;;;0.90;0.63;;;27.90;99.90;;;;;;5053917;28;20032;-73
2022/07/25 10:31:32;;;;;;;3.03;0.80;;;28.20;99.90;;;;;;5034105;28;20052;-70
2022/07/25 10:33:59;;;;;;;1.83;0.80;;;28.60;99.90;;;;;;5035811;28;20609;-71
2022/07/25 10:36:28;;;;;;;1.05;0.60;;;29.00;99.90;;;;;;5057687;28;20407;-70
2022/07/25 10:39:00;;;;;;;2.85;0.88;;;28.40;99.90;;;;;;5034148;28;20047;-73
2022/07/25 10:41:27;;;;;;;1.92;0.80;;;27.70;99.90;;;;;;5055669;28;20290;-71
2022/07/25 10:43:59;;;;;;;1.27;0.60;;;27.20;99.90;;;;;;5054739;28;20032;-71
2022/07/25 10:46:26;;;;;;;1.17;0.45;;;26.70;99.90;;;;;;5052498;28;20052;-71
2022/07/25 10:49:01;;;;;;;2.03;0.50;;;26.20;99.90;;;;;;5051172;28;20040;-71
2022/07/25 10:51:57;;;;;;;0.82;0.40;;;25.60;99.90;;;;;;5037610;28;20449;-71
2022/07/25 10:54:23;;;;;;;2.50;0.50;;;25.00;99.90;;;;;;5065906;28;20102;-70
2022/07/25 10:56:56;;;;;;;3.13;0.60;;;24.70;99.90;;;;;;5060111;28;20041;-73
2022/07/25 10:59:36;;;;;;;2.80;0.60;;;24.40;99.90;;;;;;5048551;28;20566;-70
2022/07/25 11:02:05;;;;;;;1.80;0.60;;;24.40;99.90;;;;;;5053480;28;20036;-70
2022/07/25 11:04:31;;;;;;;1.38;0.60;;;24.70;99.90;;;;;;5065750;28;20074;-70
2022/07/25 11:07:05;;;;;;;3.10;0.80;;;24.70;99.90;;;;;;5050303;28;20340;-70
2022/07/25 11:09:33;;;;;;;2.47;0.70;;;24.70;99.90;;;;;;5049617;28;20103;-70
2022/07/25 11:11:58;;;;;;;2.85;0.90;;;24.60;99.90;;;;;;5053620;28;20056;-71
2022/07/25 11:14:31;;;;;;;1.90;0.70;;;24.40;99.90;;;;;;5041156;28;20041;-70
2022/07/25 11:16:57;;;;;;;;;;;24.30;99.90;;;;;;5056755;28;20079;-70
2022/07/25 11:19:26;;;;;;;3.15;1.20;;;23.90;99.90;;;;;;5052778;28;20606;-68
2022/07/25 11:21:57;;;;;;;3.55;1.48;;;23.60;99.90;;;;;;5052979;28;20040;-71
2022/07/25 11:24:36;;;;;;;3.28;1.30;;;23.40;99.90;;;;;;5049158;28;21012;-73
2022/07/25 11:27:02;;;;;;;2.75;1.48;;;23.50;99.90;;;;;;5049256;28;20045;-71
2022/07/25 11:29:28;;;;;;;2.17;1.30;;;23.70;99.90;;;;;;5035757;28;20044;-70
2022/07/25 11:32:00;;;;;;;4.53;1.00;;;24.00;99.90;;;;;;5051229;28;20043;-70
2022/07/25 11:34:31;;;;;;;4.22;1.00;;;24.40;99.90;;;;;;5030594;28;20041;-70
2022/07/25 11:36:59;;;;;;;3.40;1.02;;;24.60;99.90;;;;;;5056891;28;20107;-70
2022/07/25 11:39:27;;;;;;;2.60;1.42;;;24.70;99.90;;;;;;5063842;28;20043;-71
2022/07/25 11:42:10;;;;;;;3.05;1.30;;;25.40;99.90;;;;;;5040719;28;20044;-72
2022/07/25 11:44:39;;;;;;;3.08;1.50;;;26.00;99.90;;;;;;5063295;28;20052;-72
2022/07/25 11:47:20;;;;;;;4.22;1.40;;;25.90;99.90;;;;;;5044871;28;20766;-71
2022/07/25 11:49:48;;;;;;;4.55;2.03;;;25.50;99.90;;;;;;5030375;28;20052;-71
2022/07/25 11:52:34;;;;;;;3.70;1.23;;;25.00;99.90;;;;;;5049406;28;20051;-72
2022/07/25 11:55:03;;;;;;;4.28;1.10;;;24.70;99.90;;;;;;5062783;28;20055;-70
2022/07/25 11:57:31;;;;;;;4.72;1.17;;;24.70;99.90;;;;;;5059646;28;20251;-69
2022/07/25 12:00:01;;;;;;;4.32;0.82;;;24.60;99.90;;;;;;5069101;28;20040;-70
2022/07/25 12:02:29;;;;;;;2.75;0.88;;;25.00;99.90;;;;;;5037517;28;20138;-71
2022/07/25 12:05:01;;;;;;;2.80;0.70;;;25.20;99.90;;;;;;5052340;28;20773;-70
2022/07/25 12:07:47;;;;;;;3.38;0.82;;;25.30;99.90;;;;;;5056260;28;20715;-68
2022/07/25 12:10:17;;;;;;;3.45;0.80;;;25.20;99.90;;;;;;5058642;28;20071;-71
2022/07/25 12:12:50;;;;;;;5.40;1.00;;;25.20;99.90;;;;;;5056861;28;20532;-69
2022/07/25 12:15:19;;;;;;;4.72;0.50;;;25.20;99.90;;;;;;5068272;28;20040;-72
2022/07/25 12:17:45;;;;;;;4.20;0.60;;;25.00;99.90;;;;;;5061276;28;20127;-70
2022/07/25 12:20:17;;;;;;;4.03;0.63;;;25.10;99.90;;;;;;5061670;28;20040;-70
2022/07/25 12:22:43;;;;;;;3.75;0.88;;;25.00;99.90;;;;;;5063036;28;20093;-72
2022/07/25 12:25:10;;;;;;;5.68;1.00;;;24.80;99.90;;;;;;5051827;28;20130;-71
2022/07/25 12:27:35;;;;;;;9.57;1.60;;;24.60;99.90;;;;;;5058192;28;20040;-72
2022/07/25 12:30:01;;;;;;;5.38;1.10;;;24.40;99.90;;;;;;5047879;28;20416;-70
2022/07/25 12:32:27;;;;;;;9.13;1.45;;;24.10;99.90;;;;;;5067907;28;20054;-71
2022/07/25 12:34:53;;;;;;;10.60;1.42;;;23.80;99.90;;;;;;5050567;28;20036;-69
2022/07/25 12:37:20;;;;;;;7.93;1.35;;;23.50;99.90;;;;;;5038162;28;20144;-72
2022/07/25 12:39:46;;;;;;;7.55;1.30;;;23.30;99.90;;;;;;5048280;28;20052;-70
2022/07/25 12:42:12;;;;;;;5.85;1.02;;;23.20;99.90;;;;;;5034730;28;20049;-69
2022/07/25 12:44:37;;;;;;;6.22;1.08;;;23.30;99.90;;;;;;5025745;28;20044;-70